<?xml version="1.0" encoding="UTF-8" standalone="no" ?>
<gpx xmlns="http://www.topografix.com/GPX/1/1" xmlns:xsi="http://www.w3.org/2001/XMLSchema-instance" xsi:schemaLocation="http://www.topografix.com/GPX/1/1 http://www.topografix.com/GPX/1/1/gpx.xsd" version="1.1" creator="VisuGPX - https://www.visugpx.com">
  <metadata>
    <name>Serent_ValleeTromeur_22km</name>
    <desc><![CDATA[gnerando idor:8157572]]></desc>
  </metadata>
  <trk>
    <name><![CDATA[Serent_ValleeTromeur_22km-8157572]]></name>
    <extensions>
      <line xmlns="http://www.topografix.com/GPX/gpx_style/0/2">
        <color>0000FF</color>
        <width>4</width>
      </line>
    </extensions>
    <trkseg>
      <trkpt lat="47.82348" lon="-2.50597">
        <ele>72</ele>
        <time>2023-11-13T19:16:06Z</time>
      </trkpt>
      <trkpt lat="47.82433" lon="-2.50651">
        <ele>73</ele>
        <time>2023-11-13T19:18:09Z</time>
      </trkpt>
      <trkpt lat="47.82517" lon="-2.50591">
        <ele>76</ele>
        <time>2023-11-13T19:20:14Z</time>
      </trkpt>
      <trkpt lat="47.82733" lon="-2.50604">
        <ele>80</ele>
        <time>2023-11-13T19:25:02Z</time>
      </trkpt>
      <trkpt lat="47.83102" lon="-2.50552">
        <ele>90</ele>
        <time>2023-11-13T19:33:17Z</time>
      </trkpt>
      <trkpt lat="47.83295" lon="-2.5057">
        <ele>90</ele>
        <time>2023-11-13T19:37:35Z</time>
      </trkpt>
      <trkpt lat="47.83269" lon="-2.50887">
        <ele>95</ele>
        <time>2023-11-13T19:42:21Z</time>
      </trkpt>
      <trkpt lat="47.83295" lon="-2.51355">
        <ele>102</ele>
        <time>2023-11-13T19:49:22Z</time>
      </trkpt>
      <trkpt lat="47.83442" lon="-2.51355">
        <ele>106</ele>
        <time>2023-11-13T19:52:38Z</time>
      </trkpt>
      <trkpt lat="47.83445" lon="-2.51492">
        <ele>103</ele>
        <time>2023-11-13T19:54:41Z</time>
      </trkpt>
      <trkpt lat="47.83511" lon="-2.51733">
        <ele>95</ele>
        <time>2023-11-13T19:58:34Z</time>
      </trkpt>
      <trkpt lat="47.83517" lon="-2.52011">
        <ele>106</ele>
        <time>2023-11-13T20:02:43Z</time>
      </trkpt>
      <trkpt lat="47.83592" lon="-2.52256">
        <ele>111</ele>
        <time>2023-11-13T20:06:44Z</time>
      </trkpt>
      <trkpt lat="47.84012" lon="-2.52552">
        <ele>127</ele>
        <time>2023-11-13T20:17:04Z</time>
      </trkpt>
      <trkpt lat="47.84098" lon="-2.52479">
        <ele>127</ele>
        <time>2023-11-13T20:19:16Z</time>
      </trkpt>
      <trkpt lat="47.84202" lon="-2.52445">
        <ele>132</ele>
        <time>2023-11-13T20:21:38Z</time>
      </trkpt>
      <trkpt lat="47.84237" lon="-2.52278">
        <ele>131</ele>
        <time>2023-11-13T20:24:15Z</time>
      </trkpt>
      <trkpt lat="47.84323" lon="-2.52252">
        <ele>133</ele>
        <time>2023-11-13T20:26:12Z</time>
      </trkpt>
      <trkpt lat="47.84433" lon="-2.52308">
        <ele>136</ele>
        <time>2023-11-13T20:28:47Z</time>
      </trkpt>
      <trkpt lat="47.84574" lon="-2.52505">
        <ele>139</ele>
        <time>2023-11-13T20:33:05Z</time>
      </trkpt>
      <trkpt lat="47.84891" lon="-2.52891">
        <ele>143</ele>
        <time>2023-11-13T20:42:11Z</time>
      </trkpt>
      <trkpt lat="47.85032" lon="-2.52363">
        <ele>126</ele>
        <time>2023-11-13T20:50:40Z</time>
      </trkpt>
      <trkpt lat="47.85636" lon="-2.51393">
        <ele>92</ele>
        <time>2023-11-13T21:10:25Z</time>
      </trkpt>
      <trkpt lat="47.85711" lon="-2.51389">
        <ele>93</ele>
        <time>2023-11-13T21:12:05Z</time>
      </trkpt>
      <trkpt lat="47.85677" lon="-2.51278">
        <ele>92</ele>
        <time>2023-11-13T21:13:55Z</time>
      </trkpt>
      <trkpt lat="47.85576" lon="-2.51222">
        <ele>95</ele>
        <time>2023-11-13T21:16:18Z</time>
      </trkpt>
      <trkpt lat="47.85553" lon="-2.5111">
        <ele>93</ele>
        <time>2023-11-13T21:18:03Z</time>
      </trkpt>
      <trkpt lat="47.85484" lon="-2.51024">
        <ele>91</ele>
        <time>2023-11-13T21:20:03Z</time>
      </trkpt>
      <trkpt lat="47.85464" lon="-2.50917">
        <ele>93</ele>
        <time>2023-11-13T21:21:43Z</time>
      </trkpt>
      <trkpt lat="47.85403" lon="-2.509">
        <ele>95</ele>
        <time>2023-11-13T21:23:06Z</time>
      </trkpt>
      <trkpt lat="47.85366" lon="-2.506">
        <ele>81</ele>
        <time>2023-11-13T21:27:39Z</time>
      </trkpt>
      <trkpt lat="47.85412" lon="-2.50398">
        <ele>75</ele>
        <time>2023-11-13T21:30:50Z</time>
      </trkpt>
      <trkpt lat="47.85374" lon="-2.50016">
        <ele>98</ele>
        <time>2023-11-13T21:36:36Z</time>
      </trkpt>
      <trkpt lat="47.8521" lon="-2.49891">
        <ele>98</ele>
        <time>2023-11-13T21:40:41Z</time>
      </trkpt>
      <trkpt lat="47.85276" lon="-2.49703">
        <ele>91</ele>
        <time>2023-11-13T21:43:51Z</time>
      </trkpt>
      <trkpt lat="47.85127" lon="-2.48625">
        <ele>77</ele>
        <time>2023-11-13T22:00:17Z</time>
      </trkpt>
      <trkpt lat="47.85046" lon="-2.48677">
        <ele>77</ele>
        <time>2023-11-13T22:02:15Z</time>
      </trkpt>
      <trkpt lat="47.84865" lon="-2.48115">
        <ele>78</ele>
        <time>2023-11-13T22:11:33Z</time>
      </trkpt>
      <trkpt lat="47.84775" lon="-2.48102">
        <ele>84</ele>
        <time>2023-11-13T22:13:34Z</time>
      </trkpt>
      <trkpt lat="47.84675" lon="-2.48226">
        <ele>86</ele>
        <time>2023-11-13T22:16:27Z</time>
      </trkpt>
      <trkpt lat="47.8449" lon="-2.48261">
        <ele>90</ele>
        <time>2023-11-13T22:20:36Z</time>
      </trkpt>
      <trkpt lat="47.84412" lon="-2.48449">
        <ele>97</ele>
        <time>2023-11-13T22:23:54Z</time>
      </trkpt>
      <trkpt lat="47.8451" lon="-2.47681">
        <ele>95</ele>
        <time>2023-11-13T22:35:34Z</time>
      </trkpt>
      <trkpt lat="47.843" lon="-2.4748">
        <ele>90</ele>
        <time>2023-11-13T22:41:07Z</time>
      </trkpt>
      <trkpt lat="47.84542" lon="-2.47115">
        <ele>88</ele>
        <time>2023-11-13T22:48:47Z</time>
      </trkpt>
      <trkpt lat="47.84919" lon="-2.47183">
        <ele>68</ele>
        <time>2023-11-13T22:57:14Z</time>
      </trkpt>
      <trkpt lat="47.85014" lon="-2.46342">
        <ele>57</ele>
        <time>2023-11-13T23:09:57Z</time>
      </trkpt>
      <trkpt lat="47.84902" lon="-2.45999">
        <ele>55</ele>
        <time>2023-11-13T23:15:39Z</time>
      </trkpt>
      <trkpt lat="47.84591" lon="-2.46239">
        <ele>72</ele>
        <time>2023-11-13T23:23:26Z</time>
      </trkpt>
      <trkpt lat="47.84516" lon="-2.45892">
        <ele>78</ele>
        <time>2023-11-13T23:28:53Z</time>
      </trkpt>
      <trkpt lat="47.83906" lon="-2.45497">
        <ele>73</ele>
        <time>2023-11-13T23:43:40Z</time>
      </trkpt>
      <trkpt lat="47.83862" lon="-2.45231">
        <ele>70</ele>
        <time>2023-11-13T23:47:46Z</time>
      </trkpt>
      <trkpt lat="47.83776" lon="-2.45192">
        <ele>67</ele>
        <time>2023-11-13T23:49:46Z</time>
      </trkpt>
      <trkpt lat="47.83678" lon="-2.45244">
        <ele>62</ele>
        <time>2023-11-13T23:52:05Z</time>
      </trkpt>
      <trkpt lat="47.83612" lon="-2.45252">
        <ele>56</ele>
        <time>2023-11-13T23:53:33Z</time>
      </trkpt>
      <trkpt lat="47.83615" lon="-2.4493">
        <ele>49</ele>
        <time>2023-11-13T23:58:21Z</time>
      </trkpt>
      <trkpt lat="47.83537" lon="-2.4457">
        <ele>51</ele>
        <time>2023-11-14T00:04:00Z</time>
      </trkpt>
      <trkpt lat="47.83381" lon="-2.44514">
        <ele>40</ele>
        <time>2023-11-14T00:07:34Z</time>
      </trkpt>
      <trkpt lat="47.83396" lon="-2.44342">
        <ele>37</ele>
        <time>2023-11-14T00:10:10Z</time>
      </trkpt>
      <trkpt lat="47.83352" lon="-2.44248">
        <ele>32</ele>
        <time>2023-11-14T00:11:52Z</time>
      </trkpt>
      <trkpt lat="47.8326" lon="-2.44175">
        <ele>32</ele>
        <time>2023-11-14T00:14:11Z</time>
      </trkpt>
      <trkpt lat="47.83139" lon="-2.44179">
        <ele>37</ele>
        <time>2023-11-14T00:16:53Z</time>
      </trkpt>
      <trkpt lat="47.83059" lon="-2.44119">
        <ele>38</ele>
        <time>2023-11-14T00:18:53Z</time>
      </trkpt>
      <trkpt lat="47.83007" lon="-2.43991">
        <ele>32</ele>
        <time>2023-11-14T00:21:07Z</time>
      </trkpt>
      <trkpt lat="47.8288" lon="-2.44025">
        <ele>32</ele>
        <time>2023-11-14T00:23:59Z</time>
      </trkpt>
      <trkpt lat="47.82894" lon="-2.44553">
        <ele>34</ele>
        <time>2023-11-14T00:31:52Z</time>
      </trkpt>
      <trkpt lat="47.82831" lon="-2.45158">
        <ele>41</ele>
        <time>2023-11-14T00:41:01Z</time>
      </trkpt>
      <trkpt lat="47.82678" lon="-2.45098">
        <ele>39</ele>
        <time>2023-11-14T00:44:32Z</time>
      </trkpt>
      <trkpt lat="47.82537" lon="-2.45179">
        <ele>43</ele>
        <time>2023-11-14T00:47:53Z</time>
      </trkpt>
      <trkpt lat="47.82433" lon="-2.45197">
        <ele>46</ele>
        <time>2023-11-14T00:50:13Z</time>
      </trkpt>
      <trkpt lat="47.82356" lon="-2.45162">
        <ele>47</ele>
        <time>2023-11-14T00:52:01Z</time>
      </trkpt>
      <trkpt lat="47.81984" lon="-2.46046">
        <ele>72</ele>
        <time>2023-11-14T01:07:35Z</time>
      </trkpt>
      <trkpt lat="47.82018" lon="-2.46441">
        <ele>77</ele>
        <time>2023-11-14T01:13:32Z</time>
      </trkpt>
      <trkpt lat="47.82067" lon="-2.47106">
        <ele>71</ele>
        <time>2023-11-14T01:23:32Z</time>
      </trkpt>
      <trkpt lat="47.81975" lon="-2.47119">
        <ele>75</ele>
        <time>2023-11-14T01:25:35Z</time>
      </trkpt>
      <trkpt lat="47.81883" lon="-2.47205">
        <ele>88</ele>
        <time>2023-11-14T01:28:00Z</time>
      </trkpt>
      <trkpt lat="47.81866" lon="-2.47299">
        <ele>93</ele>
        <time>2023-11-14T01:29:27Z</time>
      </trkpt>
      <trkpt lat="47.81828" lon="-2.47359">
        <ele>100</ele>
        <time>2023-11-14T01:30:41Z</time>
      </trkpt>
      <trkpt lat="47.81808" lon="-2.47565">
        <ele>102</ele>
        <time>2023-11-14T01:33:48Z</time>
      </trkpt>
      <trkpt lat="47.81773" lon="-2.47621">
        <ele>106</ele>
        <time>2023-11-14T01:34:56Z</time>
      </trkpt>
      <trkpt lat="47.81756" lon="-2.4772">
        <ele>107</ele>
        <time>2023-11-14T01:36:28Z</time>
      </trkpt>
      <trkpt lat="47.8184" lon="-2.47926">
        <ele>107</ele>
        <time>2023-11-14T01:40:04Z</time>
      </trkpt>
      <trkpt lat="47.81866" lon="-2.48179">
        <ele>99</ele>
        <time>2023-11-14T01:43:53Z</time>
      </trkpt>
      <trkpt lat="47.81828" lon="-2.48381">
        <ele>98</ele>
        <time>2023-11-14T01:47:01Z</time>
      </trkpt>
      <trkpt lat="47.81843" lon="-2.48613">
        <ele>100</ele>
        <time>2023-11-14T01:50:30Z</time>
      </trkpt>
      <trkpt lat="47.81612" lon="-2.48814">
        <ele>99</ele>
        <time>2023-11-14T01:56:27Z</time>
      </trkpt>
      <trkpt lat="47.81569" lon="-2.49741">
        <ele>90</ele>
        <time>2023-11-14T02:10:20Z</time>
      </trkpt>
      <trkpt lat="47.81514" lon="-2.50007">
        <ele>83</ele>
        <time>2023-11-14T02:14:29Z</time>
      </trkpt>
      <trkpt lat="47.81768" lon="-2.50273">
        <ele>76</ele>
        <time>2023-11-14T02:21:23Z</time>
      </trkpt>
      <trkpt lat="47.81972" lon="-2.50527">
        <ele>62</ele>
        <time>2023-11-14T02:27:18Z</time>
      </trkpt>
      <trkpt lat="47.82399" lon="-2.50634">
        <ele>73</ele>
        <time>2023-11-14T02:36:56Z</time>
      </trkpt>
    </trkseg>
  </trk>
</gpx>